Metar Flugplatz Niederstetten

ETHN 300720Z 25026G38KT 1000 R25/0200N SN DRSN OVC004 M00/M01 Q1009 AMB YLO TEMPO RED



Temperatur Niederstetten
25 Grad Celsius

QNH Niederstetten
1009
==============================================================

TAF Niederstetten:

TAF ETHN 291027Z 2911/3002 24010KT 9999 NSW FEW240 TEMPO 2911/2916 26012G22KT 9999 NSW SCT035 BKN240



Alle Angaben ohne Gewähr